createdAt,value
2022-10-02T00:02:15.430Z,17.14
2022-10-02T00:04:46.312Z,17.13
2022-10-02T00:07:15.621Z,17.10
2022-10-02T00:09:44.509Z,17.08
2022-10-02T00:12:16.256Z,17.06
2022-10-02T00:14:46.001Z,17.05
2022-10-02T00:17:24.348Z,17.06
2022-10-02T00:19:56.044Z,17.07
2022-10-02T00:22:36.753Z,17.08
2022-10-02T00:25:15.443Z,17.07
2022-10-02T00:28:09.349Z,17.05
2022-10-02T00:31:00.468Z,17.06
2022-10-02T00:34:00.773Z,17.08
2022-10-02T00:37:02.577Z,17.07
2022-10-02T00:39:41.261Z,17.03
2022-10-02T00:42:13.844Z,17.03
2022-10-02T00:44:59.204Z,17.04
2022-10-02T00:47:46.691Z,17.04
2022-10-02T00:50:31.053Z,17.01
2022-10-02T00:53:16.195Z,16.99
2022-10-02T00:55:42.902Z,17.00
2022-10-02T00:58:50.305Z,16.99
2022-10-02T01:01:21.899Z,16.96
2022-10-02T01:03:56.789Z,16.94
2022-10-02T01:06:26.019Z,16.92
2022-10-02T01:08:53.047Z,16.93
2022-10-02T01:11:24.842Z,16.95
2022-10-02T01:13:51.885Z,16.96
2022-10-02T01:16:18.978Z,16.94
2022-10-02T01:18:48.148Z,16.94
2022-10-02T01:21:40.479Z,16.94
2022-10-02T01:24:39.620Z,16.94
2022-10-02T01:27:06.421Z,16.95
2022-10-02T01:29:33.412Z,16.94
2022-10-02T01:32:01.114Z,16.88
2022-10-02T01:34:27.927Z,16.85
2022-10-02T01:36:54.910Z,16.85
2022-10-02T01:39:23.063Z,16.85
2022-10-02T01:41:49.857Z,16.83
2022-10-02T01:44:16.838Z,16.84
2022-10-02T01:47:22.734Z,16.80
2022-10-02T01:50:01.684Z,16.78
2022-10-02T01:52:39.823Z,16.72
2022-10-02T01:55:12.964Z,16.68
2022-10-02T01:57:42.564Z,16.66
2022-10-02T02:00:22.480Z,16.66
2022-10-02T02:03:08.147Z,16.64
2022-10-02T02:05:56.528Z,16.65
2022-10-02T02:09:12.803Z,16.66
2022-10-02T02:11:45.053Z,16.66
2022-10-02T02:14:22.287Z,16.67
2022-10-02T02:16:55.920Z,16.66
2022-10-02T02:19:35.091Z,16.65
2022-10-02T02:22:08.890Z,16.64
2022-10-02T02:24:52.634Z,16.62
2022-10-02T02:27:24.944Z,16.62
2022-10-02T02:29:57.157Z,16.61
2022-10-02T02:32:32.275Z,16.58
2022-10-02T02:35:05.797Z,16.56
2022-10-02T02:37:35.611Z,16.56
2022-10-02T02:40:07.670Z,16.56
2022-10-02T02:42:41.554Z,16.57
2022-10-02T02:45:19.807Z,16.58
2022-10-02T02:47:54.176Z,16.56
2022-10-02T02:50:44.645Z,16.54
2022-10-02T02:53:20.971Z,16.53
2022-10-02T02:55:53.399Z,16.52
2022-10-02T02:58:31.701Z,16.53
2022-10-02T03:00:58.461Z,16.55
2022-10-02T03:03:25.362Z,16.51
2022-10-02T03:06:17.327Z,16.45
2022-10-02T03:08:45.362Z,16.42
2022-10-02T03:11:23.313Z,16.44
2022-10-02T03:14:09.073Z,16.47
2022-10-02T03:17:00.432Z,16.49
2022-10-02T03:19:36.581Z,16.50
2022-10-02T03:22:24.998Z,16.49
2022-10-02T03:24:59.877Z,16.44
2022-10-02T03:27:35.400Z,16.41
2022-10-02T03:30:04.009Z,16.41
2022-10-02T03:32:33.407Z,16.39
2022-10-02T03:35:01.684Z,16.40
2022-10-02T03:37:29.920Z,16.40
2022-10-02T03:40:01.194Z,16.40
2022-10-02T03:42:32.139Z,16.40
2022-10-02T03:44:59.081Z,16.42
2022-10-02T03:47:25.848Z,16.44
2022-10-02T03:49:52.751Z,16.41
2022-10-02T03:52:26.071Z,16.36
2022-10-02T03:54:57.468Z,16.35
2022-10-02T03:57:25.625Z,16.35
2022-10-02T04:00:03.544Z,16.37
2022-10-02T04:02:38.489Z,16.37
2022-10-02T04:05:34.377Z,16.35
2022-10-02T04:08:09.743Z,16.35
2022-10-02T04:11:00.490Z,16.38
2022-10-02T04:13:47.369Z,16.41
2022-10-02T04:16:20.600Z,16.39
2022-10-02T04:18:50.012Z,16.38
2022-10-02T04:21:28.513Z,16.34
2022-10-02T04:24:18.248Z,16.30
2022-10-02T04:26:55.668Z,16.31
2022-10-02T04:29:27.864Z,16.30
2022-10-02T04:32:18.868Z,16.30
2022-10-02T04:34:45.948Z,16.32
2022-10-02T04:37:15.672Z,16.36
2022-10-02T04:39:55.465Z,16.38
2022-10-02T04:42:38.135Z,16.36
2022-10-02T04:45:13.668Z,16.30
2022-10-02T04:47:55.571Z,16.30
2022-10-02T04:50:45.622Z,16.32
2022-10-02T04:53:41.792Z,16.33
2022-10-02T04:56:33.437Z,16.34
2022-10-02T04:59:03.335Z,16.36
2022-10-02T05:02:04.566Z,16.35
2022-10-02T05:04:34.244Z,16.36
2022-10-02T05:07:25.919Z,16.35
2022-10-02T05:10:04.938Z,16.32
2022-10-02T05:12:45.095Z,16.31
2022-10-02T05:15:23.807Z,16.28
2022-10-02T05:18:09.495Z,16.24
2022-10-02T05:20:36.174Z,16.24
2022-10-02T05:23:31.101Z,16.26
2022-10-02T05:26:23.591Z,16.30
2022-10-02T05:29:21.333Z,16.29
2022-10-02T05:31:53.864Z,16.26
2022-10-02T05:34:35.622Z,16.27
2022-10-02T05:37:39.246Z,16.25
2022-10-02T05:40:31.735Z,16.24
2022-10-02T05:43:09.312Z,16.20
2022-10-02T05:46:25.448Z,16.18
2022-10-02T05:49:02.805Z,16.16
2022-10-02T05:52:00.661Z,16.16
2022-10-02T05:54:55.840Z,16.17
2022-10-02T05:57:44.527Z,16.16
2022-10-02T06:00:36.089Z,16.17
2022-10-02T06:03:21.489Z,16.19
2022-10-02T06:06:27.780Z,16.16
2022-10-02T06:09:20.045Z,16.13
2022-10-02T06:12:00.472Z,16.13
2022-10-02T06:14:33.418Z,16.13
2022-10-02T06:17:09.216Z,16.14
2022-10-02T06:20:17.007Z,16.15
2022-10-02T06:23:06.679Z,16.16
2022-10-02T06:25:57.655Z,16.17
2022-10-02T06:28:28.382Z,16.17
2022-10-02T06:31:10.137Z,16.17
2022-10-02T06:33:37.584Z,16.16
2022-10-02T06:36:55.683Z,16.17
2022-10-02T06:39:31.941Z,16.15
2022-10-02T06:42:35.121Z,16.15
2022-10-02T06:45:28.853Z,16.17
2022-10-02T06:48:34.779Z,16.17
2022-10-02T06:51:26.201Z,16.15
2022-10-02T06:54:12.431Z,16.11
2022-10-02T06:56:43.708Z,16.09
2022-10-02T06:59:23.175Z,16.07
2022-10-02T07:01:57.808Z,16.06
2022-10-02T07:04:43.261Z,16.05
2022-10-02T07:07:19.598Z,16.03
2022-10-02T07:10:01.529Z,16.02
2022-10-02T07:12:59.661Z,16.00
2022-10-02T07:15:49.417Z,16.03
2022-10-02T07:18:49.487Z,16.04
2022-10-02T07:21:27.378Z,16.05
2022-10-02T07:24:31.351Z,16.06
2022-10-02T07:27:19.872Z,16.07
2022-10-02T07:30:15.330Z,16.09
2022-10-02T07:32:47.607Z,16.10
2022-10-02T07:35:33.050Z,16.12
2022-10-02T07:38:24.661Z,16.12
2022-10-02T07:41:17.108Z,16.14
2022-10-02T07:43:43.827Z,16.14
2022-10-02T07:46:34.617Z,16.14
2022-10-02T07:49:33.275Z,16.15
2022-10-02T07:52:24.183Z,16.17
2022-10-02T07:55:03.142Z,16.17
2022-10-02T07:57:49.752Z,16.19
2022-10-02T08:00:19.027Z,16.19
2022-10-02T08:03:13.038Z,16.18
2022-10-02T08:05:44.827Z,16.20
2022-10-02T08:08:15.588Z,16.20
2022-10-02T08:10:47.578Z,16.21
2022-10-02T08:13:20.862Z,16.20
2022-10-02T08:15:53.078Z,16.18
2022-10-02T08:18:34.723Z,16.20
2022-10-02T08:21:04.491Z,16.22
2022-10-02T08:23:38.064Z,16.23
2022-10-02T08:26:27.649Z,16.24
2022-10-02T08:29:26.880Z,16.26
2022-10-02T08:31:54.552Z,16.26
2022-10-02T08:34:24.232Z,16.27
2022-10-02T08:37:13.412Z,16.30
2022-10-02T08:39:55.659Z,16.32
2022-10-02T08:42:45.835Z,16.34
2022-10-02T08:45:41.199Z,16.34
2022-10-02T08:48:11.117Z,16.34
2022-10-02T08:50:40.868Z,16.34
2022-10-02T08:53:32.768Z,16.37
2022-10-02T08:56:21.764Z,16.43
2022-10-02T08:59:00.530Z,16.43
2022-10-02T09:02:01.447Z,16.48
2022-10-02T09:04:48.118Z,16.48
2022-10-02T09:07:49.572Z,16.52
2022-10-02T09:10:34.192Z,16.58
2022-10-02T09:13:30.157Z,16.61
2022-10-02T09:16:08.535Z,16.65
2022-10-02T09:18:35.264Z,16.65
2022-10-02T09:21:20.198Z,16.71
2022-10-02T09:24:24.078Z,16.75
2022-10-02T09:26:57.957Z,16.75
2022-10-02T09:30:03.708Z,16.78
2022-10-02T09:33:10.783Z,16.79
2022-10-02T09:35:50.950Z,16.82
2022-10-02T09:38:36.830Z,16.83
2022-10-02T09:41:43.263Z,16.83
2022-10-02T09:44:37.734Z,16.83
2022-10-02T09:47:07.158Z,16.81
2022-10-02T09:50:11.477Z,16.83
2022-10-02T09:52:50.405Z,16.80
2022-10-02T09:55:36.883Z,16.77
2022-10-02T09:58:44.023Z,16.79
2022-10-02T10:01:23.321Z,16.81
2022-10-02T10:03:52.918Z,16.75
2022-10-02T10:06:45.818Z,16.77
2022-10-02T10:09:49.450Z,16.77
2022-10-02T10:12:43.198Z,16.81
2022-10-02T10:15:29.551Z,16.89
2022-10-02T10:18:10.107Z,16.95
2022-10-02T10:20:58.729Z,17.02
2022-10-02T10:23:47.065Z,16.99
2022-10-02T10:26:27.949Z,17.00
2022-10-02T10:29:15.271Z,17.04
2022-10-02T10:31:51.260Z,17.07
2022-10-02T10:34:36.496Z,17.07
2022-10-02T10:37:48.558Z,17.03
2022-10-02T10:40:37.278Z,17.00
2022-10-02T10:43:22.353Z,17.01
2022-10-02T10:46:13.442Z,17.08
2022-10-02T10:49:03.869Z,17.07
2022-10-02T10:51:46.630Z,17.08
2022-10-02T10:54:37.143Z,17.14
2022-10-02T10:57:29.689Z,17.15
2022-10-02T11:00:03.077Z,17.10
2022-10-02T11:02:55.317Z,17.16
2022-10-02T11:05:40.939Z,17.15
2022-10-02T11:08:45.605Z,17.13
2022-10-02T11:11:18.324Z,17.18
2022-10-02T11:14:10.250Z,17.21
2022-10-02T11:17:04.953Z,17.31
2022-10-02T11:19:34.682Z,17.38
2022-10-02T11:22:28.007Z,17.44
2022-10-02T11:25:12.844Z,17.43
2022-10-02T11:27:58.406Z,17.39
2022-10-02T11:30:37.124Z,17.33
2022-10-02T11:33:33.269Z,17.29
2022-10-02T11:36:42.738Z,17.31
2022-10-02T11:39:20.016Z,17.37
2022-10-02T11:42:28.322Z,17.46
2022-10-02T11:45:32.916Z,17.47
2022-10-02T11:48:33.690Z,17.46
2022-10-02T11:51:26.530Z,17.50
2022-10-02T11:54:02.122Z,17.52
2022-10-02T11:56:36.657Z,17.57
2022-10-02T11:59:32.058Z,17.60
2022-10-02T12:02:26.543Z,17.68
2022-10-02T12:05:33.996Z,17.76
2022-10-02T12:08:11.402Z,17.74
2022-10-02T12:10:41.698Z,17.76
2022-10-02T12:13:37.621Z,17.78
2022-10-02T12:16:25.857Z,17.74
2022-10-02T12:19:24.766Z,17.79
2022-10-02T12:22:26.897Z,17.82
2022-10-02T12:25:37.401Z,17.92
2022-10-02T12:28:23.750Z,17.95
2022-10-02T12:30:56.935Z,17.98
2022-10-02T12:33:52.909Z,18.06
2022-10-02T12:36:47.161Z,18.13
2022-10-02T12:39:32.262Z,18.11
2022-10-02T12:42:38.289Z,18.13
2022-10-02T12:45:27.551Z,18.15
2022-10-02T12:48:09.067Z,18.18
2022-10-02T12:50:54.287Z,18.18
2022-10-02T12:53:55.757Z,18.24
2022-10-02T12:56:38.743Z,18.28
2022-10-02T12:59:14.618Z,18.30
2022-10-02T13:02:58.992Z,18.34
2022-10-02T13:05:51.442Z,18.37
2022-10-02T13:09:01.109Z,18.36
2022-10-02T13:12:01.650Z,18.35
2022-10-02T13:14:43.911Z,18.39
2022-10-02T13:17:46.290Z,18.47
2022-10-02T13:20:28.278Z,18.46
2022-10-02T13:23:26.010Z,18.48
2022-10-02T13:25:57.549Z,18.55
2022-10-02T13:29:02.644Z,18.60
2022-10-02T13:31:37.799Z,18.59
2022-10-02T13:34:23.335Z,18.63
2022-10-02T13:37:19.643Z,18.61
2022-10-02T13:39:55.232Z,18.59
2022-10-02T13:43:04.523Z,18.58
2022-10-02T13:45:39.251Z,18.50
2022-10-02T13:48:16.805Z,18.43
2022-10-02T13:50:46.740Z,18.38
2022-10-02T13:53:34.917Z,18.36
2022-10-02T13:56:29.005Z,18.36
2022-10-02T13:59:17.122Z,18.36
2022-10-02T14:01:59.502Z,18.35
2022-10-02T14:04:37.898Z,18.35
2022-10-02T14:07:29.619Z,18.34
2022-10-02T14:10:11.302Z,18.37
2022-10-02T14:12:44.510Z,18.36
2022-10-02T14:16:07.556Z,18.35
2022-10-02T14:18:45.811Z,18.33
2022-10-02T14:21:18.095Z,18.31
2022-10-02T14:23:54.280Z,18.30
2022-10-02T14:26:45.811Z,18.34
2022-10-02T14:29:26.819Z,18.42
2022-10-02T14:32:32.107Z,18.48
2022-10-02T14:35:17.341Z,18.57
2022-10-02T14:37:59.096Z,18.66
2022-10-02T14:40:38.989Z,18.80
2022-10-02T14:43:18.693Z,18.82
2022-10-02T14:46:25.179Z,18.81
2022-10-02T14:49:21.479Z,18.71
2022-10-02T14:52:30.541Z,18.68
2022-10-02T14:55:16.308Z,18.60
2022-10-02T14:57:45.725Z,18.53
2022-10-02T15:00:24.958Z,18.50
2022-10-02T15:02:58.178Z,18.51
2022-10-02T15:06:04.597Z,18.52
2022-10-02T15:08:46.085Z,18.58
2022-10-02T15:11:30.429Z,18.65
2022-10-02T15:14:07.480Z,18.66
2022-10-02T15:17:03.318Z,18.67
2022-10-02T15:19:55.354Z,18.70
2022-10-02T15:22:34.235Z,18.72
2022-10-02T15:25:17.912Z,18.74
2022-10-02T15:28:35.246Z,18.78
2022-10-02T15:31:10.614Z,18.78
2022-10-02T15:33:44.054Z,18.79
2022-10-02T15:36:19.944Z,18.84
2022-10-02T15:39:16.151Z,18.89
2022-10-02T15:42:02.863Z,18.91
2022-10-02T15:44:38.756Z,18.95
2022-10-02T15:47:20.910Z,18.96
2022-10-02T15:49:56.620Z,18.89
2022-10-02T15:53:00.726Z,18.86
2022-10-02T15:56:06.588Z,18.78
2022-10-02T15:58:52.366Z,18.73
2022-10-02T16:01:44.181Z,18.76
2022-10-02T16:04:37.304Z,18.78
2022-10-02T16:07:36.648Z,18.71
2022-10-02T16:10:19.559Z,18.66
2022-10-02T16:13:04.707Z,18.63
2022-10-02T16:15:54.635Z,18.55
2022-10-02T16:18:53.751Z,18.50
2022-10-02T16:21:23.259Z,18.47
2022-10-02T16:23:59.128Z,18.45
2022-10-02T16:27:01.315Z,18.46
2022-10-02T16:29:42.217Z,18.44
2022-10-02T16:32:31.328Z,18.42
2022-10-02T16:35:17.014Z,18.41
2022-10-02T16:37:59.916Z,18.38
2022-10-02T16:40:27.113Z,18.39
2022-10-02T16:43:13.167Z,18.37
2022-10-02T16:45:59.557Z,18.37
2022-10-02T16:48:41.221Z,18.33
2022-10-02T16:51:26.199Z,18.30
2022-10-02T16:54:19.900Z,18.29
2022-10-02T16:56:55.717Z,18.27
2022-10-02T16:59:28.273Z,18.26
2022-10-02T17:02:18.162Z,18.25
2022-10-02T17:04:53.048Z,18.20
2022-10-02T17:07:43.681Z,18.17
2022-10-02T17:10:21.517Z,18.16
2022-10-02T17:12:53.478Z,18.16
2022-10-02T17:15:23.284Z,18.13
2022-10-02T17:18:39.648Z,18.10
2022-10-02T17:21:28.963Z,18.06
2022-10-02T17:24:24.414Z,18.04
2022-10-02T17:27:09.391Z,18.04
2022-10-02T17:29:59.481Z,18.02
2022-10-02T17:32:47.949Z,18.00
2022-10-02T17:35:18.409Z,17.95
2022-10-02T17:38:24.325Z,17.93
2022-10-02T17:41:14.881Z,17.90
2022-10-02T17:44:11.976Z,17.88
2022-10-02T17:47:04.725Z,17.87
2022-10-02T17:50:15.283Z,17.83
2022-10-02T17:53:05.054Z,17.78
2022-10-02T17:56:11.588Z,17.77
2022-10-02T17:59:01.385Z,17.74
2022-10-02T18:01:36.773Z,17.70
2022-10-02T18:04:49.235Z,17.66
2022-10-02T18:07:52.709Z,17.63
2022-10-02T18:10:39.649Z,17.62
2022-10-02T18:13:21.655Z,17.52
2022-10-02T18:16:33.467Z,17.50
2022-10-02T18:19:22.144Z,17.49
2022-10-02T18:21:51.764Z,17.48
2022-10-02T18:25:15.735Z,17.44
2022-10-02T18:27:57.292Z,17.42
2022-10-02T18:30:29.376Z,17.39
2022-10-02T18:33:36.061Z,17.35
2022-10-02T18:36:24.332Z,17.32
2022-10-02T18:39:19.350Z,17.31
2022-10-02T18:42:29.765Z,17.28
2022-10-02T18:44:59.633Z,17.23
2022-10-02T18:47:35.540Z,17.19
2022-10-02T18:50:20.601Z,17.17
2022-10-02T18:53:04.533Z,17.11
2022-10-02T18:56:08.417Z,17.07
2022-10-02T18:58:47.849Z,17.04
2022-10-02T19:01:17.623Z,17.00
2022-10-02T19:04:02.227Z,16.96
2022-10-02T19:06:35.038Z,16.94
2022-10-02T19:09:07.468Z,16.93
2022-10-02T19:12:15.541Z,16.88
2022-10-02T19:14:46.495Z,16.86
2022-10-02T19:17:24.221Z,16.84
2022-10-02T19:19:50.993Z,16.85
2022-10-02T19:22:25.947Z,16.83
2022-10-02T19:25:16.296Z,16.85
2022-10-02T19:27:50.079Z,16.84
2022-10-02T19:30:28.528Z,16.84
2022-10-02T19:33:04.864Z,16.82
2022-10-02T19:35:40.836Z,16.79
2022-10-02T19:38:18.751Z,16.77
2022-10-02T19:40:52.134Z,16.73
2022-10-02T19:43:43.058Z,16.70
2022-10-02T19:46:14.410Z,16.67
2022-10-02T19:48:41.509Z,16.62
2022-10-02T19:51:17.447Z,16.57
2022-10-02T19:54:00.471Z,16.52
2022-10-02T19:56:35.385Z,16.49
2022-10-02T19:59:18.749Z,16.42
2022-10-02T20:01:53.348Z,16.37
2022-10-02T20:04:24.604Z,16.37
2022-10-02T20:06:56.807Z,16.36
2022-10-02T20:09:38.507Z,16.37
2022-10-02T20:12:27.217Z,16.39
2022-10-02T20:15:10.327Z,16.39
2022-10-02T20:17:37.872Z,16.41
2022-10-02T20:20:11.910Z,16.38
2022-10-02T20:22:46.805Z,16.36
2022-10-02T20:25:29.358Z,16.33
2022-10-02T20:28:04.913Z,16.31
2022-10-02T20:30:43.277Z,16.30
2022-10-02T20:33:23.123Z,16.28
2022-10-02T20:35:57.958Z,16.30
2022-10-02T20:38:31.663Z,16.30
2022-10-02T20:41:01.703Z,16.30
2022-10-02T20:43:55.299Z,16.27
2022-10-02T20:46:34.193Z,16.23
2022-10-02T20:49:20.721Z,16.20
2022-10-02T20:52:06.427Z,16.18
2022-10-02T20:55:05.914Z,16.16
2022-10-02T20:58:08.256Z,16.14
2022-10-02T21:00:53.392Z,16.16
2022-10-02T21:03:31.196Z,16.17
2022-10-02T21:06:04.008Z,16.17
2022-10-02T21:08:34.193Z,16.16
2022-10-02T21:11:13.555Z,16.11
2022-10-02T21:14:25.483Z,16.08
2022-10-02T21:17:34.287Z,16.05
2022-10-02T21:20:22.751Z,16.02
2022-10-02T21:23:25.315Z,16.02
2022-10-02T21:26:18.800Z,16.01
2022-10-02T21:29:06.978Z,15.97
2022-10-02T21:31:48.742Z,15.90
2022-10-02T21:34:38.617Z,15.88
2022-10-02T21:37:15.033Z,15.85
2022-10-02T21:40:06.628Z,15.79
2022-10-02T21:43:02.073Z,15.74
2022-10-02T21:45:57.692Z,15.68
2022-10-02T21:48:33.422Z,15.64
2022-10-02T21:51:34.345Z,15.62
2022-10-02T21:54:10.163Z,15.61
2022-10-02T21:57:05.587Z,15.56
2022-10-02T21:59:53.799Z,15.52
2022-10-02T22:02:48.227Z,15.52
2022-10-02T22:05:27.313Z,15.51
2022-10-02T22:08:33.409Z,15.45
2022-10-02T22:11:22.893Z,15.38
2022-10-02T22:13:53.955Z,15.31
2022-10-02T22:16:38.148Z,15.28
2022-10-02T22:19:34.203Z,15.28
2022-10-02T22:22:12.979Z,15.25
2022-10-02T22:25:08.045Z,15.24
2022-10-02T22:27:43.782Z,15.24
2022-10-02T22:30:21.893Z,15.29
2022-10-02T22:33:32.006Z,15.31
2022-10-02T22:36:15.494Z,15.35
2022-10-02T22:39:19.773Z,15.34
2022-10-02T22:42:23.023Z,15.30
2022-10-02T22:45:00.292Z,15.26
2022-10-02T22:47:57.897Z,15.24
2022-10-02T22:50:40.172Z,15.23
2022-10-02T22:53:24.386Z,15.22
2022-10-02T22:56:00.059Z,15.18
2022-10-02T22:58:59.648Z,15.15
2022-10-02T23:01:44.340Z,15.13
2022-10-02T23:04:23.343Z,15.11
2022-10-02T23:07:02.396Z,15.04
2022-10-02T23:09:46.236Z,15.03
2022-10-02T23:12:50.100Z,15.04
2022-10-02T23:15:48.967Z,14.97
2022-10-02T23:18:19.770Z,14.93
2022-10-02T23:21:02.925Z,14.92
2022-10-02T23:23:51.300Z,14.92
2022-10-02T23:26:37.488Z,14.92
2022-10-02T23:29:44.410Z,14.90
2022-10-02T23:32:40.443Z,14.86
2022-10-02T23:35:14.100Z,14.84
2022-10-02T23:37:57.934Z,14.81
2022-10-02T23:41:14.145Z,14.82
2022-10-02T23:43:59.785Z,14.78
2022-10-02T23:46:36.557Z,14.78
2022-10-02T23:49:03.894Z,14.78
2022-10-02T23:52:02.926Z,14.77
2022-10-02T23:54:48.089Z,14.76
2022-10-02T23:57:29.995Z,14.72
